sensor_id;sensor_type;location;lat;lon;timestamp;P1;durP1;ratioP1;P2;durP2;ratioP2
5454;SDS011;2750;49.050;9.250;2024-02-21T00:02:20;13.57;;;6.03;;
5454;SDS011;2750;49.050;9.250;2024-02-21T00:07:23;12.00;;;5.20;;
5454;SDS011;2750;49.050;9.250;2024-02-21T00:12:24;10.50;;;4.73;;
5454;SDS011;2750;49.050;9.250;2024-02-21T00:17:26;7.80;;;4.97;;
5454;SDS011;2750;49.050;9.250;2024-02-21T00:22:29;13.57;;;5.47;;
5454;SDS011;2750;49.050;9.250;2024-02-21T00:27:31;12.23;;;4.87;;
5454;SDS011;2750;49.050;9.250;2024-02-21T00:32:32;9.80;;;4.73;;
5454;SDS011;2750;49.050;9.250;2024-02-21T00:37:36;12.70;;;5.33;;
5454;SDS011;2750;49.050;9.250;2024-02-21T00:42:37;10.93;;;5.37;;
5454;SDS011;2750;49.050;9.250;2024-02-21T00:47:39;9.17;;;5.10;;
5454;SDS011;2750;49.050;9.250;2024-02-21T00:52:42;12.17;;;5.17;;
5454;SDS011;2750;49.050;9.250;2024-02-21T00:57:44;10.27;;;6.00;;
5454;SDS011;2750;49.050;9.250;2024-02-21T01:02:45;11.83;;;5.77;;
5454;SDS011;2750;49.050;9.250;2024-02-21T01:07:49;16.20;;;5.70;;
5454;SDS011;2750;49.050;9.250;2024-02-21T01:12:50;9.77;;;5.60;;
5454;SDS011;2750;49.050;9.250;2024-02-21T01:17:52;12.67;;;6.27;;
5454;SDS011;2750;49.050;9.250;2024-02-21T01:22:56;17.07;;;6.87;;
5454;SDS011;2750;49.050;9.250;2024-02-21T01:27:57;11.77;;;6.63;;
5454;SDS011;2750;49.050;9.250;2024-02-21T01:32:59;11.00;;;5.83;;
5454;SDS011;2750;49.050;9.250;2024-02-21T01:38:02;10.90;;;5.97;;
5454;SDS011;2750;49.050;9.250;2024-02-21T01:43:14;10.80;;;5.53;;
5454;SDS011;2750;49.050;9.250;2024-02-21T01:48:17;10.83;;;5.57;;
5454;SDS011;2750;49.050;9.250;2024-02-21T01:53:21;8.77;;;5.33;;
5454;SDS011;2750;49.050;9.250;2024-02-21T01:58:26;10.73;;;5.80;;
5454;SDS011;2750;49.050;9.250;2024-02-21T02:03:28;13.43;;;6.27;;
5454;SDS011;2750;49.050;9.250;2024-02-21T02:08:31;13.50;;;6.17;;
5454;SDS011;2750;49.050;9.250;2024-02-21T02:13:33;9.57;;;5.27;;
5454;SDS011;2750;49.050;9.250;2024-02-21T02:18:35;16.07;;;5.43;;
5454;SDS011;2750;49.050;9.250;2024-02-21T02:23:38;11.30;;;5.30;;
5454;SDS011;2750;49.050;9.250;2024-02-21T02:28:40;11.43;;;5.60;;
5454;SDS011;2750;49.050;9.250;2024-02-21T02:33:42;9.03;;;6.03;;
5454;SDS011;2750;49.050;9.250;2024-02-21T02:38:45;9.63;;;5.60;;
5454;SDS011;2750;49.050;9.250;2024-02-21T02:43:46;11.07;;;5.57;;
5454;SDS011;2750;49.050;9.250;2024-02-21T02:48:48;12.07;;;5.67;;
5454;SDS011;2750;49.050;9.250;2024-02-21T02:53:51;11.73;;;5.97;;
5454;SDS011;2750;49.050;9.250;2024-02-21T02:58:52;11.23;;;5.10;;
5454;SDS011;2750;49.050;9.250;2024-02-21T03:03:54;11.90;;;5.80;;
5454;SDS011;2750;49.050;9.250;2024-02-21T03:08:57;8.23;;;5.00;;
5454;SDS011;2750;49.050;9.250;2024-02-21T03:14:00;10.80;;;5.20;;
5454;SDS011;2750;49.050;9.250;2024-02-21T03:19:01;8.60;;;5.03;;
5454;SDS011;2750;49.050;9.250;2024-02-21T03:24:05;11.90;;;5.23;;
5454;SDS011;2750;49.050;9.250;2024-02-21T03:29:07;9.97;;;5.20;;
5454;SDS011;2750;49.050;9.250;2024-02-21T03:34:09;10.70;;;5.13;;
5454;SDS011;2750;49.050;9.250;2024-02-21T03:39:13;11.67;;;5.33;;
5454;SDS011;2750;49.050;9.250;2024-02-21T03:44:14;14.13;;;5.57;;
5454;SDS011;2750;49.050;9.250;2024-02-21T03:49:16;10.80;;;4.97;;
5454;SDS011;2750;49.050;9.250;2024-02-21T03:54:19;10.83;;;5.07;;
5454;SDS011;2750;49.050;9.250;2024-02-21T03:59:21;9.00;;;5.17;;
5454;SDS011;2750;49.050;9.250;2024-02-21T04:04:23;8.30;;;4.83;;
5454;SDS011;2750;49.050;9.250;2024-02-21T04:09:26;11.03;;;5.53;;
5454;SDS011;2750;49.050;9.250;2024-02-21T04:14:31;7.70;;;5.80;;
5454;SDS011;2750;49.050;9.250;2024-02-21T04:19:32;11.33;;;5.90;;
5454;SDS011;2750;49.050;9.250;2024-02-21T04:24:36;13.47;;;5.87;;
5454;SDS011;2750;49.050;9.250;2024-02-21T04:29:37;10.27;;;5.83;;
5454;SDS011;2750;49.050;9.250;2024-02-21T04:34:40;11.37;;;5.93;;
5454;SDS011;2750;49.050;9.250;2024-02-21T04:39:43;14.03;;;6.37;;
5454;SDS011;2750;49.050;9.250;2024-02-21T04:44:45;10.03;;;5.47;;
5454;SDS011;2750;49.050;9.250;2024-02-21T04:49:46;10.03;;;4.90;;
5454;SDS011;2750;49.050;9.250;2024-02-21T04:54:49;13.43;;;6.03;;
5454;SDS011;2750;49.050;9.250;2024-02-21T04:59:51;7.83;;;5.10;;
5454;SDS011;2750;49.050;9.250;2024-02-21T05:04:53;9.40;;;5.77;;
5454;SDS011;2750;49.050;9.250;2024-02-21T05:09:56;11.93;;;5.63;;
5454;SDS011;2750;49.050;9.250;2024-02-21T05:14:57;11.10;;;6.07;;
5454;SDS011;2750;49.050;9.250;2024-02-21T05:19:59;9.07;;;5.23;;
5454;SDS011;2750;49.050;9.250;2024-02-21T05:25:02;13.50;;;5.70;;
5454;SDS011;2750;49.050;9.250;2024-02-21T05:30:04;13.20;;;5.90;;
5454;SDS011;2750;49.050;9.250;2024-02-21T05:35:07;13.27;;;5.93;;
5454;SDS011;2750;49.050;9.250;2024-02-21T05:40:11;12.33;;;6.70;;
5454;SDS011;2750;49.050;9.250;2024-02-21T05:45:13;11.00;;;6.00;;
5454;SDS011;2750;49.050;9.250;2024-02-21T05:50:15;9.90;;;5.70;;
5454;SDS011;2750;49.050;9.250;2024-02-21T05:55:18;11.60;;;5.23;;
5454;SDS011;2750;49.050;9.250;2024-02-21T06:00:20;11.97;;;5.90;;
5454;SDS011;2750;49.050;9.250;2024-02-21T06:05:22;8.03;;;5.37;;
5454;SDS011;2750;49.050;9.250;2024-02-21T06:10:24;11.63;;;6.13;;
5454;SDS011;2750;49.050;9.250;2024-02-21T06:15:26;12.13;;;5.87;;
5454;SDS011;2750;49.050;9.250;2024-02-21T06:20:28;9.37;;;5.10;;
5454;SDS011;2750;49.050;9.250;2024-02-21T06:25:31;8.23;;;5.00;;
5454;SDS011;2750;49.050;9.250;2024-02-21T06:30:32;7.40;;;4.47;;
5454;SDS011;2750;49.050;9.250;2024-02-21T06:35:34;9.13;;;4.70;;
5454;SDS011;2750;49.050;9.250;2024-02-21T06:40:37;11.30;;;6.00;;
5454;SDS011;2750;49.050;9.250;2024-02-21T06:45:40;9.63;;;4.33;;
5454;SDS011;2750;49.050;9.250;2024-02-21T06:50:42;10.50;;;4.63;;
5454;SDS011;2750;49.050;9.250;2024-02-21T06:55:45;7.30;;;3.87;;
5454;SDS011;2750;49.050;9.250;2024-02-21T07:00:46;9.93;;;4.07;;
5454;SDS011;2750;49.050;9.250;2024-02-21T07:05:48;9.37;;;4.10;;
5454;SDS011;2750;49.050;9.250;2024-02-21T07:10:51;9.90;;;4.43;;
5454;SDS011;2750;49.050;9.250;2024-02-21T07:15:52;10.53;;;4.67;;
5454;SDS011;2750;49.050;9.250;2024-02-21T07:20:54;11.37;;;5.20;;
5454;SDS011;2750;49.050;9.250;2024-02-21T07:25:57;11.23;;;4.97;;
5454;SDS011;2750;49.050;9.250;2024-02-21T07:30:59;7.23;;;5.47;;
5454;SDS011;2750;49.050;9.250;2024-02-21T07:36:01;9.33;;;4.60;;
5454;SDS011;2750;49.050;9.250;2024-02-21T07:41:07;9.73;;;4.80;;
5454;SDS011;2750;49.050;9.250;2024-02-21T07:46:09;10.30;;;4.97;;
5454;SDS011;2750;49.050;9.250;2024-02-21T07:51:10;9.73;;;4.67;;
5454;SDS011;2750;49.050;9.250;2024-02-21T07:56:13;9.43;;;5.67;;
5454;SDS011;2750;49.050;9.250;2024-02-21T08:01:18;8.50;;;4.80;;
5454;SDS011;2750;49.050;9.250;2024-02-21T08:06:20;10.63;;;4.67;;
5454;SDS011;2750;49.050;9.250;2024-02-21T08:11:23;5.37;;;4.00;;
5454;SDS011;2750;49.050;9.250;2024-02-21T08:16:25;6.27;;;4.10;;
5454;SDS011;2750;49.050;9.250;2024-02-21T08:21:27;5.17;;;3.60;;
5454;SDS011;2750;49.050;9.250;2024-02-21T08:26:30;4.63;;;3.53;;
5454;SDS011;2750;49.050;9.250;2024-02-21T08:31:32;5.33;;;3.60;;
5454;SDS011;2750;49.050;9.250;2024-02-21T08:36:34;6.37;;;3.37;;
5454;SDS011;2750;49.050;9.250;2024-02-21T08:41:37;6.47;;;3.23;;
5454;SDS011;2750;49.050;9.250;2024-02-21T08:46:39;7.40;;;3.70;;
5454;SDS011;2750;49.050;9.250;2024-02-21T08:51:40;10.87;;;3.90;;
5454;SDS011;2750;49.050;9.250;2024-02-21T08:56:44;7.73;;;3.47;;
5454;SDS011;2750;49.050;9.250;2024-02-21T09:01:46;5.47;;;3.50;;
5454;SDS011;2750;49.050;9.250;2024-02-21T09:06:47;6.13;;;3.07;;
5454;SDS011;2750;49.050;9.250;2024-02-21T09:11:50;8.10;;;3.77;;
5454;SDS011;2750;49.050;9.250;2024-02-21T09:16:52;5.67;;;3.53;;
5454;SDS011;2750;49.050;9.250;2024-02-21T09:21:53;6.90;;;3.80;;
5454;SDS011;2750;49.050;9.250;2024-02-21T09:26:56;8.00;;;3.60;;
5454;SDS011;2750;49.050;9.250;2024-02-21T09:31:58;6.17;;;3.40;;
5454;SDS011;2750;49.050;9.250;2024-02-21T09:37:00;5.77;;;2.93;;
5454;SDS011;2750;49.050;9.250;2024-02-21T09:42:05;8.57;;;3.60;;
5454;SDS011;2750;49.050;9.250;2024-02-21T09:47:09;9.50;;;3.57;;
5454;SDS011;2750;49.050;9.250;2024-02-21T09:52:13;6.43;;;4.60;;
5454;SDS011;2750;49.050;9.250;2024-02-21T09:57:17;9.73;;;3.97;;
5454;SDS011;2750;49.050;9.250;2024-02-21T10:02:19;4.73;;;2.83;;
5454;SDS011;2750;49.050;9.250;2024-02-21T10:07:21;8.30;;;3.60;;
5454;SDS011;2750;49.050;9.250;2024-02-21T10:12:27;5.57;;;3.30;;
5454;SDS011;2750;49.050;9.250;2024-02-21T10:17:28;7.27;;;2.83;;
5454;SDS011;2750;49.050;9.250;2024-02-21T10:22:30;4.17;;;3.27;;
5454;SDS011;2750;49.050;9.250;2024-02-21T10:27:37;7.47;;;3.43;;
5454;SDS011;2750;49.050;9.250;2024-02-21T10:32:48;6.00;;;3.53;;
5454;SDS011;2750;49.050;9.250;2024-02-21T10:37:50;5.70;;;2.73;;
5454;SDS011;2750;49.050;9.250;2024-02-21T10:42:57;5.87;;;2.93;;
5454;SDS011;2750;49.050;9.250;2024-02-21T10:48:01;7.03;;;3.20;;
5454;SDS011;2750;49.050;9.250;2024-02-21T10:53:13;9.30;;;3.03;;
5454;SDS011;2750;49.050;9.250;2024-02-21T10:58:26;5.23;;;2.83;;
5454;SDS011;2750;49.050;9.250;2024-02-21T11:03:30;6.40;;;3.20;;
5454;SDS011;2750;49.050;9.250;2024-02-21T11:08:32;7.23;;;3.63;;
5454;SDS011;2750;49.050;9.250;2024-02-21T11:13:36;6.67;;;4.07;;
5454;SDS011;2750;49.050;9.250;2024-02-21T11:18:38;9.13;;;3.23;;
5454;SDS011;2750;49.050;9.250;2024-02-21T11:23:39;5.00;;;3.17;;
5454;SDS011;2750;49.050;9.250;2024-02-21T11:28:42;3.83;;;2.40;;
5454;SDS011;2750;49.050;9.250;2024-02-21T11:33:44;8.53;;;3.23;;
5454;SDS011;2750;49.050;9.250;2024-02-21T11:38:48;5.07;;;2.33;;
5454;SDS011;2750;49.050;9.250;2024-02-21T11:43:51;4.43;;;2.13;;
5454;SDS011;2750;49.050;9.250;2024-02-21T11:48:53;3.00;;;2.00;;
5454;SDS011;2750;49.050;9.250;2024-02-21T11:53:56;6.77;;;2.57;;
5454;SDS011;2750;49.050;9.250;2024-02-21T11:59:00;5.90;;;2.50;;
5454;SDS011;2750;49.050;9.250;2024-02-21T12:04:01;5.57;;;2.50;;
5454;SDS011;2750;49.050;9.250;2024-02-21T12:09:03;5.20;;;2.00;;
5454;SDS011;2750;49.050;9.250;2024-02-21T12:14:06;5.13;;;2.50;;
5454;SDS011;2750;49.050;9.250;2024-02-21T12:19:09;10.87;;;3.93;;
5454;SDS011;2750;49.050;9.250;2024-02-21T12:24:13;7.67;;;4.40;;
5454;SDS011;2750;49.050;9.250;2024-02-21T12:29:16;6.87;;;2.40;;
5454;SDS011;2750;49.050;9.250;2024-02-21T12:34:18;6.13;;;2.10;;
5454;SDS011;2750;49.050;9.250;2024-02-21T12:39:19;6.73;;;2.37;;
5454;SDS011;2750;49.050;9.250;2024-02-21T12:44:22;3.83;;;2.10;;
5454;SDS011;2750;49.050;9.250;2024-02-21T12:49:24;6.77;;;2.37;;
5454;SDS011;2750;49.050;9.250;2024-02-21T12:54:27;5.10;;;2.17;;
5454;SDS011;2750;49.050;9.250;2024-02-21T12:59:31;4.03;;;2.20;;
5454;SDS011;2750;49.050;9.250;2024-02-21T13:04:33;4.87;;;2.60;;
5454;SDS011;2750;49.050;9.250;2024-02-21T13:09:35;4.50;;;2.03;;
5454;SDS011;2750;49.050;9.250;2024-02-21T13:14:37;6.43;;;2.30;;
5454;SDS011;2750;49.050;9.250;2024-02-21T13:19:39;4.80;;;2.13;;
5454;SDS011;2750;49.050;9.250;2024-02-21T13:24:41;6.07;;;2.37;;
5454;SDS011;2750;49.050;9.250;2024-02-21T13:29:43;5.83;;;2.57;;
5454;SDS011;2750;49.050;9.250;2024-02-21T13:34:45;7.13;;;2.77;;
5454;SDS011;2750;49.050;9.250;2024-02-21T13:39:47;6.43;;;2.83;;
5454;SDS011;2750;49.050;9.250;2024-02-21T13:44:49;6.53;;;2.63;;
5454;SDS011;2750;49.050;9.250;2024-02-21T13:49:51;5.50;;;2.10;;
5454;SDS011;2750;49.050;9.250;2024-02-21T13:54:52;4.73;;;2.40;;
5454;SDS011;2750;49.050;9.250;2024-02-21T13:59:55;6.40;;;2.90;;
5454;SDS011;2750;49.050;9.250;2024-02-21T14:04:57;6.67;;;2.50;;
5454;SDS011;2750;49.050;9.250;2024-02-21T14:09:59;6.93;;;2.70;;
5454;SDS011;2750;49.050;9.250;2024-02-21T14:15:02;5.40;;;2.40;;
5454;SDS011;2750;49.050;9.250;2024-02-21T14:20:04;7.80;;;2.63;;
5454;SDS011;2750;49.050;9.250;2024-02-21T14:25:07;5.07;;;2.70;;
5454;SDS011;2750;49.050;9.250;2024-02-21T14:30:11;4.90;;;2.40;;
5454;SDS011;2750;49.050;9.250;2024-02-21T14:35:12;4.63;;;2.50;;
5454;SDS011;2750;49.050;9.250;2024-02-21T14:40:15;6.23;;;2.50;;
5454;SDS011;2750;49.050;9.250;2024-02-21T14:45:19;6.90;;;2.63;;
5454;SDS011;2750;49.050;9.250;2024-02-21T14:50:23;5.23;;;2.97;;
5454;SDS011;2750;49.050;9.250;2024-02-21T14:55:24;4.77;;;2.47;;
5454;SDS011;2750;49.050;9.250;2024-02-21T15:00:30;5.60;;;2.60;;
5454;SDS011;2750;49.050;9.250;2024-02-21T15:05:32;4.80;;;2.80;;
5454;SDS011;2750;49.050;9.250;2024-02-21T15:10:34;6.90;;;2.40;;
5454;SDS011;2750;49.050;9.250;2024-02-21T15:15:37;8.60;;;2.53;;
5454;SDS011;2750;49.050;9.250;2024-02-21T15:20:39;5.40;;;2.30;;
5454;SDS011;2750;49.050;9.250;2024-02-21T15:25:40;9.23;;;2.77;;
5454;SDS011;2750;49.050;9.250;2024-02-21T15:30:44;7.80;;;3.00;;
5454;SDS011;2750;49.050;9.250;2024-02-21T15:35:46;4.57;;;2.50;;
5454;SDS011;2750;49.050;9.250;2024-02-21T15:40:48;7.93;;;2.70;;
5454;SDS011;2750;49.050;9.250;2024-02-21T15:45:51;5.87;;;2.60;;
5454;SDS011;2750;49.050;9.250;2024-02-21T15:50:52;8.00;;;2.60;;
5454;SDS011;2750;49.050;9.250;2024-02-21T15:55:54;9.37;;;3.27;;
5454;SDS011;2750;49.050;9.250;2024-02-21T16:00:57;6.80;;;2.97;;
5454;SDS011;2750;49.050;9.250;2024-02-21T16:05:58;4.73;;;2.93;;
5454;SDS011;2750;49.050;9.250;2024-02-21T16:11:01;3.97;;;2.50;;
5454;SDS011;2750;49.050;9.250;2024-02-21T16:16:04;8.10;;;2.97;;
5454;SDS011;2750;49.050;9.250;2024-02-21T16:21:06;9.07;;;2.80;;
5454;SDS011;2750;49.050;9.250;2024-02-21T16:26:08;9.90;;;2.87;;
5454;SDS011;2750;49.050;9.250;2024-02-21T16:31:12;7.20;;;3.27;;
5454;SDS011;2750;49.050;9.250;2024-02-21T16:36:19;7.40;;;2.70;;
5454;SDS011;2750;49.050;9.250;2024-02-21T16:41:22;4.57;;;2.60;;
5454;SDS011;2750;49.050;9.250;2024-02-21T16:46:25;5.40;;;2.57;;
5454;SDS011;2750;49.050;9.250;2024-02-21T16:51:26;7.20;;;2.20;;
5454;SDS011;2750;49.050;9.250;2024-02-21T16:56:28;5.50;;;2.27;;
5454;SDS011;2750;49.050;9.250;2024-02-21T17:01:35;4.43;;;2.00;;
5454;SDS011;2750;49.050;9.250;2024-02-21T17:06:39;4.67;;;2.57;;
5454;SDS011;2750;49.050;9.250;2024-02-21T17:11:40;5.70;;;2.70;;
5454;SDS011;2750;49.050;9.250;2024-02-21T17:16:43;4.87;;;2.50;;
5454;SDS011;2750;49.050;9.250;2024-02-21T17:21:45;4.10;;;1.83;;
5454;SDS011;2750;49.050;9.250;2024-02-21T17:26:46;6.40;;;2.10;;
5454;SDS011;2750;49.050;9.250;2024-02-21T17:31:49;2.70;;;2.00;;
5454;SDS011;2750;49.050;9.250;2024-02-21T17:36:51;3.73;;;2.10;;
5454;SDS011;2750;49.050;9.250;2024-02-21T17:41:53;4.23;;;2.10;;
5454;SDS011;2750;49.050;9.250;2024-02-21T17:46:57;6.30;;;2.83;;
5454;SDS011;2750;49.050;9.250;2024-02-21T17:51:59;3.23;;;2.50;;
5454;SDS011;2750;49.050;9.250;2024-02-21T17:57:00;3.80;;;2.50;;
5454;SDS011;2750;49.050;9.250;2024-02-21T18:02:03;4.33;;;2.90;;
5454;SDS011;2750;49.050;9.250;2024-02-21T18:07:05;8.67;;;3.30;;
5454;SDS011;2750;49.050;9.250;2024-02-21T18:12:07;5.47;;;2.63;;
5454;SDS011;2750;49.050;9.250;2024-02-21T18:17:10;4.53;;;2.57;;
5454;SDS011;2750;49.050;9.250;2024-02-21T18:22:14;5.37;;;3.00;;
5454;SDS011;2750;49.050;9.250;2024-02-21T18:27:16;7.50;;;2.93;;
5454;SDS011;2750;49.050;9.250;2024-02-21T18:32:18;4.80;;;3.00;;
5454;SDS011;2750;49.050;9.250;2024-02-21T18:37:20;5.33;;;3.00;;
5454;SDS011;2750;49.050;9.250;2024-02-21T18:42:22;3.97;;;2.90;;
5454;SDS011;2750;49.050;9.250;2024-02-21T18:47:25;5.03;;;3.07;;
5454;SDS011;2750;49.050;9.250;2024-02-21T18:52:27;3.83;;;2.67;;
5454;SDS011;2750;49.050;9.250;2024-02-21T18:57:28;6.20;;;3.23;;
5454;SDS011;2750;49.050;9.250;2024-02-21T19:02:33;6.57;;;3.10;;
5454;SDS011;2750;49.050;9.250;2024-02-21T19:07:34;6.23;;;3.23;;
5454;SDS011;2750;49.050;9.250;2024-02-21T19:12:37;5.90;;;2.97;;
5454;SDS011;2750;49.050;9.250;2024-02-21T19:17:40;6.20;;;3.80;;
5454;SDS011;2750;49.050;9.250;2024-02-21T19:22:41;8.30;;;3.23;;
5454;SDS011;2750;49.050;9.250;2024-02-21T19:27:46;5.93;;;2.87;;
5454;SDS011;2750;49.050;9.250;2024-02-21T19:32:49;6.13;;;3.23;;
5454;SDS011;2750;49.050;9.250;2024-02-21T19:37:50;5.47;;;3.03;;
5454;SDS011;2750;49.050;9.250;2024-02-21T19:42:52;4.30;;;3.10;;
5454;SDS011;2750;49.050;9.250;2024-02-21T19:47:55;6.00;;;2.80;;
5454;SDS011;2750;49.050;9.250;2024-02-21T19:52:58;5.40;;;2.80;;
5454;SDS011;2750;49.050;9.250;2024-02-21T19:58:02;6.73;;;3.50;;
5454;SDS011;2750;49.050;9.250;2024-02-21T20:03:06;7.83;;;3.50;;
5454;SDS011;2750;49.050;9.250;2024-02-21T20:08:07;3.80;;;3.10;;
5454;SDS011;2750;49.050;9.250;2024-02-21T20:13:09;5.67;;;3.23;;
5454;SDS011;2750;49.050;9.250;2024-02-21T20:18:14;4.97;;;3.33;;
5454;SDS011;2750;49.050;9.250;2024-02-21T20:23:15;5.60;;;2.77;;
5454;SDS011;2750;49.050;9.250;2024-02-21T20:28:19;4.00;;;2.77;;
5454;SDS011;2750;49.050;9.250;2024-02-21T20:33:23;3.67;;;3.10;;
5454;SDS011;2750;49.050;9.250;2024-02-21T20:38:24;6.43;;;3.30;;
5454;SDS011;2750;49.050;9.250;2024-02-21T20:43:26;4.30;;;2.93;;
5454;SDS011;2750;49.050;9.250;2024-02-21T20:48:29;6.20;;;3.20;;
5454;SDS011;2750;49.050;9.250;2024-02-21T20:53:31;6.20;;;3.90;;
5454;SDS011;2750;49.050;9.250;2024-02-21T20:58:32;6.17;;;3.40;;
5454;SDS011;2750;49.050;9.250;2024-02-21T21:03:35;4.67;;;3.20;;
5454;SDS011;2750;49.050;9.250;2024-02-21T21:08:38;5.27;;;3.40;;
5454;SDS011;2750;49.050;9.250;2024-02-21T21:13:40;13.63;;;9.40;;
5454;SDS011;2750;49.050;9.250;2024-02-21T21:18:43;3.93;;;3.03;;
5454;SDS011;2750;49.050;9.250;2024-02-21T21:23:44;3.33;;;3.03;;
5454;SDS011;2750;49.050;9.250;2024-02-21T21:28:46;6.13;;;3.40;;
5454;SDS011;2750;49.050;9.250;2024-02-21T21:33:49;3.93;;;3.23;;
5454;SDS011;2750;49.050;9.250;2024-02-21T21:38:51;2.20;;;1.73;;
5454;SDS011;2750;49.050;9.250;2024-02-21T21:43:53;1.50;;;1.40;;
5454;SDS011;2750;49.050;9.250;2024-02-21T21:48:56;1.40;;;1.13;;
5454;SDS011;2750;49.050;9.250;2024-02-21T21:53:58;2.17;;;1.00;;
5454;SDS011;2750;49.050;9.250;2024-02-21T21:58:59;1.83;;;1.20;;
5454;SDS011;2750;49.050;9.250;2024-02-21T22:04:04;1.20;;;1.10;;
5454;SDS011;2750;49.050;9.250;2024-02-21T22:09:06;1.10;;;1.00;;
5454;SDS011;2750;49.050;9.250;2024-02-21T22:14:09;1.40;;;1.30;;
5454;SDS011;2750;49.050;9.250;2024-02-21T22:19:12;1.20;;;0.90;;
5454;SDS011;2750;49.050;9.250;2024-02-21T22:24:13;2.03;;;1.10;;
5454;SDS011;2750;49.050;9.250;2024-02-21T22:29:15;2.80;;;1.00;;
5454;SDS011;2750;49.050;9.250;2024-02-21T22:34:18;1.40;;;1.20;;
5454;SDS011;2750;49.050;9.250;2024-02-21T22:39:19;1.97;;;1.20;;
5454;SDS011;2750;49.050;9.250;2024-02-21T22:44:22;1.10;;;1.00;;
5454;SDS011;2750;49.050;9.250;2024-02-21T22:49:25;2.00;;;1.17;;
5454;SDS011;2750;49.050;9.250;2024-02-21T22:54:26;1.60;;;1.40;;
5454;SDS011;2750;49.050;9.250;2024-02-21T22:59:28;1.97;;;1.10;;
5454;SDS011;2750;49.050;9.250;2024-02-21T23:04:31;2.00;;;1.30;;
5454;SDS011;2750;49.050;9.250;2024-02-21T23:09:33;2.57;;;1.13;;
5454;SDS011;2750;49.050;9.250;2024-02-21T23:14:35;1.27;;;1.10;;
5454;SDS011;2750;49.050;9.250;2024-02-21T23:19:38;0.97;;;0.97;;
5454;SDS011;2750;49.050;9.250;2024-02-21T23:24:39;1.30;;;1.20;;
5454;SDS011;2750;49.050;9.250;2024-02-21T23:29:41;1.20;;;1.10;;
5454;SDS011;2750;49.050;9.250;2024-02-21T23:34:44;1.50;;;1.40;;
5454;SDS011;2750;49.050;9.250;2024-02-21T23:39:46;3.43;;;1.40;;
5454;SDS011;2750;49.050;9.250;2024-02-21T23:44:47;1.30;;;1.20;;
5454;SDS011;2750;49.050;9.250;2024-02-21T23:49:50;2.27;;;1.37;;
5454;SDS011;2750;49.050;9.250;2024-02-21T23:54:52;1.60;;;1.33;;
5454;SDS011;2750;49.050;9.250;2024-02-21T23:59:54;2.47;;;1.60;;
